Time;durP1;ratioP1;P1;durP2;ratioP2;P2;SDS_P1;SDS_P2;PMS_P1;PMS_P2;Temp;Humidity;BMP_temperature;BMP_pressure;BME280_temperature;BME280_humidity;BME280_pressure;Samples;Min_cycle;Max_cycle;Signal;HPM_P1;HPM_P2
2022/04/03 00:01:28;;;;;;;3.58;1.90;;;3.50;56.60;;;;;;5136497;28;20083;-67
2022/04/03 00:03:54;;;;;;;2.92;1.67;;;3.40;56.70;;;;;;5136511;28;20030;-66
2022/04/03 00:06:20;;;;;;;3.83;1.80;;;3.40;56.80;;;;;;5136448;28;20035;-68
2022/04/03 00:08:46;;;;;;;6.68;2.28;;;3.40;56.70;;;;;;5136529;28;20036;-66
2022/04/03 00:11:12;;;;;;;3.90;1.90;;;3.50;56.80;;;;;;5136357;28;20020;-66
2022/04/03 00:13:37;;;;;;;3.70;2.03;;;3.40;56.70;;;;;;5136335;27;20028;-68
2022/04/03 00:16:06;;;;;;;4.80;2.05;;;3.40;57.00;;;;;;5136320;28;20047;-66
2022/04/03 00:18:33;;;;;;;5.68;2.08;;;3.40;57.00;;;;;;5136222;28;20083;-66
2022/04/03 00:21:00;;;;;;;3.58;1.88;;;3.40;57.00;;;;;;5136196;28;20024;-66
2022/04/03 00:23:26;;;;;;;5.65;2.22;;;3.40;56.90;;;;;;5136087;28;20024;-67
2022/04/03 00:25:52;;;;;;;4.43;2.28;;;3.40;57.10;;;;;;5136122;28;20087;-66
2022/04/03 00:28:19;;;;;;;4.45;2.28;;;3.20;57.20;;;;;;5135868;27;20097;-66
2022/04/03 00:30:45;;;;;;;5.78;2.65;;;3.10;57.60;;;;;;5135856;28;20020;-67
2022/04/03 00:33:11;;;;;;;5.68;2.20;;;3.10;57.90;;;;;;5134889;28;20038;-66
2022/04/03 00:35:37;;;;;;;12.05;4.60;;;3.20;58.10;;;;;;5135925;28;20514;-66
2022/04/03 00:38:03;;;;;;;6.63;2.80;;;3.10;57.70;;;;;;5135875;28;20028;-66
2022/04/03 00:40:29;;;;;;;4.60;2.55;;;3.00;57.70;;;;;;5135892;28;20042;-67
2022/04/03 00:42:55;;;;;;;5.47;2.67;;;2.70;58.40;;;;;;5135637;28;20072;-67
2022/04/03 00:45:21;;;;;;;4.40;2.13;;;2.60;58.80;;;;;;5134579;28;20019;-67
2022/04/03 00:47:54;;;;;;;4.88;1.88;;;2.70;59.10;;;;;;5135688;28;20106;-67
2022/04/03 00:50:21;;;;;;;4.65;2.00;;;2.70;59.10;;;;;;5135710;28;20030;-67
2022/04/03 00:52:47;;;;;;;4.00;1.92;;;2.70;58.90;;;;;;5135599;28;20024;-67
2022/04/03 00:55:13;;;;;;;4.82;1.98;;;2.80;58.80;;;;;;5135534;28;20045;-67
2022/04/03 00:57:42;;;;;;;4.30;2.20;;;2.80;59.70;;;;;;5135466;28;20044;-67
2022/04/03 01:00:09;;;;;;;5.72;1.98;;;2.80;58.80;;;;;;5135439;28;20075;-67
2022/04/03 01:02:35;;;;;;;3.95;1.95;;;2.80;59.00;;;;;;5135287;28;20030;-67
2022/04/03 01:05:02;;;;;;;4.35;2.00;;;2.80;59.00;;;;;;5134794;28;20039;-67
2022/04/03 01:07:27;;;;;;;4.78;2.28;;;2.80;60.10;;;;;;5133796;28;20031;-67
2022/04/03 01:09:53;;;;;;;4.28;1.90;;;2.90;59.20;;;;;;5135174;28;20019;-67
2022/04/03 01:12:19;;;;;;;4.07;1.92;;;2.90;59.00;;;;;;5135164;28;20023;-67
2022/04/03 01:14:44;;;;;;;4.40;2.35;;;3.00;58.90;;;;;;5135094;28;20035;-67
2022/04/03 01:17:13;;;;;;;3.55;1.88;;;3.10;59.60;;;;;;5135113;28;20072;-67
2022/04/03 01:19:39;;;;;;;5.43;2.10;;;3.10;58.60;;;;;;5135156;28;20024;-67
2022/04/03 01:22:06;;;;;;;3.35;1.90;;;3.10;58.60;;;;;;5134902;28;20084;-67
2022/04/03 01:24:32;;;;;;;4.07;1.95;;;3.00;58.70;;;;;;5134913;28;20024;-67
2022/04/03 01:26:58;;;;;;;5.95;2.10;;;3.00;58.80;;;;;;5134919;28;20015;-67
2022/04/03 01:29:24;;;;;;;4.60;2.20;;;3.00;58.80;;;;;;5134772;28;20024;-67
2022/04/03 01:31:51;;;;;;;4.72;2.30;;;2.90;59.80;;;;;;5134554;28;20112;-67
2022/04/03 01:34:19;;;;;;;4.22;2.40;;;3.00;59.00;;;;;;5134846;28;20141;-67
2022/04/03 01:36:45;;;;;;;6.10;2.40;;;2.90;59.10;;;;;;5133624;28;20023;-67
2022/04/03 01:39:11;;;;;;;4.72;2.72;;;2.90;59.10;;;;;;5134615;28;20076;-67
2022/04/03 01:41:41;;;;;;;4.88;2.30;;;3.00;60.10;;;;;;5133555;28;20132;-67
2022/04/03 01:44:09;;;;;;;4.07;2.17;;;2.90;59.10;;;;;;5134664;28;20102;-67
2022/04/03 01:46:38;;;;;;;6.35;2.50;;;2.90;59.30;;;;;;5134546;28;20015;-67
2022/04/03 01:49:05;;;;;;;3.65;2.15;;;2.90;59.30;;;;;;5134469;28;20020;-67
2022/04/03 01:51:32;;;;;;;3.85;2.10;;;2.90;59.20;;;;;;5134495;28;20020;-67
2022/04/03 01:53:59;;;;;;;4.35;2.47;;;2.80;59.10;;;;;;5134384;28;20016;-67
2022/04/03 01:56:24;;;;;;;3.78;2.33;;;2.70;59.30;;;;;;5134373;27;20061;-67
2022/04/03 01:58:50;;;;;;;5.25;2.30;;;2.60;59.50;;;;;;5134307;28;20020;-67
2022/04/03 02:01:16;;;;;;;4.43;2.63;;;2.60;59.90;;;;;;5134258;28;20035;-67
2022/04/03 02:03:41;;;;;;;4.45;2.25;;;2.50;60.10;;;;;;5134121;28;20027;-67
2022/04/03 02:06:07;;;;;;;4.18;2.42;;;2.50;60.00;;;;;;5134185;28;20384;-67
2022/04/03 02:08:33;;;;;;;4.97;2.30;;;2.40;60.30;;;;;;5134101;28;20027;-67
2022/04/03 02:10:59;;;;;;;4.80;2.35;;;2.50;60.50;;;;;;5134170;28;20031;-67
2022/04/03 02:13:25;;;;;;;4.72;2.15;;;2.40;60.50;;;;;;5133965;28;20034;-67
2022/04/03 02:15:51;;;;;;;5.00;2.35;;;2.30;60.70;;;;;;5134005;27;20031;-67
2022/04/03 02:18:17;;;;;;;5.43;2.17;;;2.30;60.90;;;;;;5133890;28;20032;-67
2022/04/03 02:20:43;;;;;;;7.97;2.30;;;2.40;61.00;;;;;;5132984;28;20027;-67
2022/04/03 02:23:10;;;;;;;5.75;2.45;;;2.40;60.90;;;;;;5132899;28;20028;-67
2022/04/03 02:25:36;;;;;;;6.45;2.53;;;2.50;60.90;;;;;;5134034;28;20012;-67
2022/04/03 02:28:03;;;;;;;6.75;2.60;;;2.40;60.90;;;;;;5133787;28;20020;-67
2022/04/03 02:30:29;;;;;;;4.60;2.40;;;2.20;61.10;;;;;;5133840;28;20047;-67
2022/04/03 02:32:55;;;;;;;3.90;2.50;;;2.20;61.50;;;;;;5133588;28;20097;-67
2022/04/03 02:35:20;;;;;;;4.90;2.50;;;2.20;61.60;;;;;;5133770;28;20023;-67
2022/04/03 02:37:46;;;;;;;6.65;2.65;;;2.30;61.80;;;;;;5133724;28;20051;-67
2022/04/03 02:40:14;;;;;;;6.88;2.72;;;2.30;61.70;;;;;;5133637;28;20035;-67
2022/04/03 02:42:41;;;;;;;6.25;2.90;;;2.20;61.70;;;;;;5133577;28;20035;-67
2022/04/03 02:45:10;;;;;;;5.00;2.63;;;2.20;61.90;;;;;;5133648;28;20027;-67
2022/04/03 02:47:36;;;;;;;8.13;2.58;;;2.30;61.90;;;;;;5133680;28;20023;-67
2022/04/03 02:50:03;;;;;;;7.15;2.60;;;2.30;62.60;;;;;;5133618;28;20023;-67
2022/04/03 02:52:28;;;;;;;5.28;2.80;;;2.30;61.70;;;;;;5133552;28;20016;-67
2022/04/03 02:54:54;;;;;;;5.82;2.80;;;2.30;61.60;;;;;;5133542;28;20035;-67
2022/04/03 02:57:20;;;;;;;7.20;2.80;;;2.30;61.60;;;;;;5133498;28;20092;-67
2022/04/03 02:59:46;;;;;;;6.75;3.08;;;2.30;61.80;;;;;;5133515;28;20065;-67
2022/04/03 03:02:12;;;;;;;4.22;2.50;;;2.30;61.80;;;;;;5133382;28;20059;-67
2022/04/03 03:04:38;;;;;;;9.07;3.00;;;2.30;62.20;;;;;;5133474;28;20032;-67
2022/04/03 03:07:05;;;;;;;9.02;2.88;;;2.20;62.20;;;;;;5133446;28;20024;-68
2022/04/03 03:09:31;;;;;;;8.05;3.10;;;2.20;62.20;;;;;;5133408;28;20518;-67
2022/04/03 03:11:58;;;;;;;6.30;3.50;;;2.20;62.50;;;;;;5133405;28;20031;-67
2022/04/03 03:14:23;;;;;;;6.75;3.30;;;2.20;62.60;;;;;;5133370;28;20035;-67
2022/04/03 03:16:49;;;;;;;7.43;3.35;;;2.10;62.50;;;;;;5133330;28;20024;-67
2022/04/03 03:19:15;;;;;;;8.20;3.70;;;2.20;62.50;;;;;;5132252;28;20039;-67
2022/04/03 03:21:42;;;;;;;5.72;3.25;;;2.20;62.80;;;;;;5133206;28;20353;-67
2022/04/03 03:24:07;;;;;;;5.95;3.35;;;2.20;62.70;;;;;;5133280;28;20020;-67
2022/04/03 03:26:33;;;;;;;6.13;3.22;;;2.20;62.80;;;;;;5133258;28;20028;-67
2022/04/03 03:28:59;;;;;;;6.05;3.10;;;2.10;62.50;;;;;;5134504;28;20019;-67
2022/04/03 03:31:24;;;;;;;7.22;4.03;;;2.10;62.90;;;;;;5137010;28;20104;-68
2022/04/03 03:33:50;;;;;;;7.32;3.50;;;2.00;63.00;;;;;;5137275;28;20042;-67
2022/04/03 03:36:16;;;;;;;5.75;2.80;;;1.90;63.10;;;;;;5137073;28;20039;-67
2022/04/03 03:38:42;;;;;;;6.20;3.67;;;1.80;63.20;;;;;;5137078;28;20079;-67
2022/04/03 03:41:09;;;;;;;5.75;3.20;;;1.90;63.60;;;;;;5135889;28;20024;-67
2022/04/03 03:43:35;;;;;;;8.13;3.50;;;1.80;63.50;;;;;;5136863;28;20047;-67
2022/04/03 03:46:01;;;;;;;6.07;3.15;;;1.80;63.60;;;;;;5135934;28;20053;-67
2022/04/03 03:48:27;;;;;;;6.10;3.05;;;1.80;63.70;;;;;;5136828;28;20020;-67
2022/04/03 03:50:53;;;;;;;6.00;3.33;;;1.90;63.50;;;;;;5136768;28;20081;-67
2022/04/03 03:53:19;;;;;;;6.20;3.53;;;1.90;63.50;;;;;;5135714;28;20103;-68
2022/04/03 03:55:45;;;;;;;5.82;3.33;;;1.90;63.50;;;;;;5136758;28;20055;-67
2022/04/03 03:58:11;;;;;;;3.95;3.00;;;2.00;63.20;;;;;;5136694;28;20024;-67
2022/04/03 04:00:37;;;;;;;6.60;3.38;;;1.90;63.00;;;;;;5136564;28;20035;-67
2022/04/03 04:03:03;;;;;;;7.47;3.58;;;1.90;63.10;;;;;;5135429;28;20052;-68
2022/04/03 04:05:29;;;;;;;5.13;3.33;;;1.70;63.60;;;;;;5136526;28;20075;-67
2022/04/03 04:07:55;;;;;;;7.30;3.95;;;1.60;63.70;;;;;;5136573;28;20053;-67
2022/04/03 04:10:21;;;;;;;6.35;3.17;;;1.50;63.50;;;;;;5135520;28;20075;-67
2022/04/03 04:12:48;;;;;;;7.90;3.40;;;1.40;63.70;;;;;;5136394;28;20042;-67
2022/04/03 04:15:14;;;;;;;8.82;3.78;;;1.30;64.60;;;;;;5136409;28;20153;-67
2022/04/03 04:17:45;;;;;;;6.88;3.28;;;1.30;64.90;;;;;;5136324;28;20020;-67
2022/04/03 04:20:13;;;;;;;5.13;2.95;;;1.30;65.30;;;;;;5136272;28;20036;-67
2022/04/03 04:22:39;;;;;;;7.78;3.25;;;1.40;65.10;;;;;;5136151;28;20016;-67
2022/04/03 04:25:06;;;;;;;6.93;3.28;;;1.50;64.80;;;;;;5136139;27;20044;-67
2022/04/03 04:27:32;;;;;;;5.95;2.85;;;1.60;64.60;;;;;;5135982;28;20032;-67
2022/04/03 04:29:57;;;;;;;6.72;3.35;;;1.60;64.50;;;;;;5134989;28;20051;-67
2022/04/03 04:32:23;;;;;;;6.18;3.42;;;1.70;64.40;;;;;;5135834;28;20107;-67
2022/04/03 04:34:50;;;;;;;6.85;3.30;;;1.70;64.60;;;;;;5135988;28;20102;-67
2022/04/03 04:37:16;;;;;;;5.88;3.75;;;1.60;64.50;;;;;;5134827;28;20024;-68
2022/04/03 04:39:42;;;;;;;6.65;4.13;;;1.50;64.40;;;;;;5135404;28;20027;-67
2022/04/03 04:42:08;;;;;;;7.13;3.40;;;1.50;64.30;;;;;;5135127;28;20035;-67
2022/04/03 04:44:33;;;;;;;6.15;3.20;;;1.40;64.40;;;;;;5134695;28;20027;-67
2022/04/03 04:46:59;;;;;;;6.22;3.42;;;1.40;64.60;;;;;;5134793;28;20035;-67
2022/04/03 04:49:25;;;;;;;7.03;3.40;;;1.40;64.90;;;;;;5135634;28;20024;-67
2022/04/03 04:51:50;;;;;;;7.20;3.30;;;1.40;65.00;;;;;;5135658;28;20038;-67
2022/04/03 04:54:16;;;;;;;11.75;3.53;;;1.40;65.20;;;;;;5135571;28;20023;-67
2022/04/03 04:56:42;;;;;;;6.40;3.40;;;1.40;64.80;;;;;;5135489;28;20038;-67
2022/04/03 04:59:07;;;;;;;6.65;3.40;;;1.30;65.00;;;;;;5135242;28;20023;-67
2022/04/03 05:01:33;;;;;;;7.65;3.50;;;1.40;65.00;;;;;;5135313;28;20031;-67
2022/04/03 05:03:58;;;;;;;7.45;3.38;;;1.50;65.00;;;;;;5135374;28;20016;-67
2022/04/03 05:06:26;;;;;;;6.38;3.50;;;1.30;65.40;;;;;;5135456;28;20024;-67
2022/04/03 05:08:52;;;;;;;5.68;3.17;;;1.20;65.90;;;;;;5135313;28;20020;-68
2022/04/03 05:11:18;;;;;;;7.05;4.00;;;1.30;65.70;;;;;;5135268;28;20023;-67
2022/04/03 05:13:44;;;;;;;9.70;3.90;;;1.20;65.50;;;;;;5135150;28;20028;-67
2022/04/03 05:16:11;;;;;;;10.85;3.42;;;1.10;66.30;;;;;;5135178;28;20027;-67
2022/04/03 05:18:37;;;;;;;5.95;3.00;;;1.10;66.40;;;;;;5135130;28;20023;-67
2022/04/03 05:21:04;;;;;;;6.45;3.45;;;1.10;66.90;;;;;;5135077;28;20023;-67
2022/04/03 05:23:31;;;;;;;5.63;3.58;;;1.10;67.20;;;;;;5134944;28;20024;-67
2022/04/03 05:25:57;;;;;;;5.22;3.40;;;1.00;67.00;;;;;;5134943;28;20045;-67
2022/04/03 05:28:23;;;;;;;7.55;3.70;;;0.90;67.50;;;;;;5134832;28;20023;-67
2022/04/03 05:30:49;;;;;;;8.85;3.85;;;0.80;68.20;;;;;;5134867;28;20016;-67
2022/04/03 05:33:15;;;;;;;7.22;3.85;;;0.90;68.50;;;;;;5134678;28;20047;-67
2022/04/03 05:35:42;;;;;;;6.05;3.58;;;1.00;69.80;;;;;;5133843;28;20035;-67
2022/04/03 05:38:08;;;;;;;6.47;3.70;;;1.00;68.80;;;;;;5134696;28;20034;-67
2022/04/03 05:40:33;;;;;;;6.15;3.38;;;1.10;68.50;;;;;;5134787;28;20019;-68
2022/04/03 05:43:00;;;;;;;8.02;3.72;;;1.20;69.20;;;;;;5133466;28;20043;-67
2022/04/03 05:45:26;;;;;;;6.53;3.33;;;1.30;68.80;;;;;;5134585;28;20016;-67
2022/04/03 05:47:53;;;;;;;9.23;3.80;;;1.30;69.30;;;;;;5134514;28;20080;-67
2022/04/03 05:50:19;;;;;;;6.15;3.55;;;1.40;69.00;;;;;;5134521;28;20024;-67
2022/04/03 05:52:50;;;;;;;9.02;3.67;;;1.50;69.20;;;;;;5134141;28;20024;-67
2022/04/03 05:55:18;;;;;;;8.15;3.70;;;1.70;68.70;;;;;;5134374;28;20030;-67
2022/04/03 05:57:45;;;;;;;8.90;4.03;;;1.80;68.60;;;;;;5134359;28;20032;-67
2022/04/03 06:00:12;;;;;;;5.85;3.70;;;1.80;68.50;;;;;;5133201;28;20028;-67
2022/04/03 06:02:59;;;;;;;6.15;3.60;;;1.90;68.70;;;;;;5134188;28;20028;-68
2022/04/03 06:05:35;;;;;;;7.53;3.60;;;2.00;68.50;;;;;;5134259;28;20028;-67
2022/04/03 06:08:04;;;;;;;7.90;4.07;;;2.00;68.30;;;;;;5134263;28;20051;-67
2022/04/03 06:10:31;;;;;;;6.72;3.28;;;2.10;68.30;;;;;;5134152;28;20011;-68
2022/04/03 06:13:07;;;;;;;7.10;3.70;;;2.20;68.30;;;;;;5134064;28;20051;-68
2022/04/03 06:15:38;;;;;;;6.80;3.50;;;2.20;68.80;;;;;;5134042;28;20035;-68
2022/04/03 06:18:06;;;;;;;6.60;3.40;;;2.20;69.10;;;;;;5134190;28;20027;-68
2022/04/03 06:20:32;;;;;;;8.60;3.53;;;2.20;69.70;;;;;;5133968;28;20062;-68
2022/04/03 06:22:58;;;;;;;7.57;3.75;;;2.30;69.50;;;;;;5134018;28;20032;-68
2022/04/03 06:25:23;;;;;;;7.78;3.50;;;2.20;70.20;;;;;;5133832;28;20027;-68
2022/04/03 06:27:51;;;;;;;5.60;3.40;;;2.20;70.20;;;;;;5133824;28;20019;-68
2022/04/03 06:30:17;;;;;;;9.27;3.67;;;2.20;70.80;;;;;;5133924;28;20016;-67
2022/04/03 06:32:43;;;;;;;8.85;3.50;;;2.20;70.90;;;;;;5133624;28;20099;-67
2022/04/03 06:35:09;;;;;;;8.02;3.72;;;2.20;70.90;;;;;;5115816;28;20032;-67
2022/04/03 06:37:35;;;;;;;11.73;4.60;;;2.30;70.90;;;;;;5133737;28;20038;-67
2022/04/03 06:40:01;;;;;;;7.00;3.88;;;2.30;70.70;;;;;;5133753;28;20093;-67
2022/04/03 06:42:31;;;;;;;7.72;4.18;;;2.40;70.80;;;;;;5133658;28;20035;-67
2022/04/03 06:44:59;;;;;;;7.47;4.45;;;2.40;70.90;;;;;;5133813;28;20019;-67
2022/04/03 06:47:24;;;;;;;7.85;4.72;;;2.50;70.80;;;;;;5133661;28;20015;-67
2022/04/03 06:49:50;;;;;;;8.20;4.32;;;2.50;70.90;;;;;;5133632;28;20028;-66
2022/04/03 06:52:16;;;;;;;9.57;4.70;;;2.60;70.60;;;;;;5133631;28;20027;-67
2022/04/03 06:54:44;;;;;;;7.72;4.07;;;2.70;70.70;;;;;;5133589;28;20031;-67
2022/04/03 06:57:13;;;;;;;6.75;3.88;;;2.80;70.60;;;;;;5133751;28;20052;-67
2022/04/03 06:59:40;;;;;;;11.63;4.28;;;2.80;70.70;;;;;;5133652;28;20028;-67
2022/04/03 07:02:05;;;;;;;8.13;4.75;;;2.90;70.80;;;;;;5133540;28;20036;-67
2022/04/03 07:04:31;;;;;;;7.75;4.40;;;2.90;71.10;;;;;;5135830;28;20031;-68
2022/04/03 07:06:56;;;;;;;10.05;4.30;;;2.90;71.20;;;;;;5137816;28;20032;-67
2022/04/03 07:09:22;;;;;;;7.80;5.07;;;3.00;71.40;;;;;;5137878;28;20024;-67
2022/04/03 07:11:48;;;;;;;10.20;4.78;;;3.00;71.50;;;;;;5136679;28;20032;-68
2022/04/03 07:14:13;;;;;;;10.50;4.90;;;3.10;70.90;;;;;;5137577;28;20020;-67
2022/04/03 07:16:39;;;;;;;11.05;4.93;;;3.20;70.90;;;;;;5137530;28;20024;-67
2022/04/03 07:19:05;;;;;;;6.85;4.25;;;3.20;70.90;;;;;;5137602;27;20085;-67
2022/04/03 07:21:30;;;;;;;9.45;4.63;;;3.30;70.90;;;;;;5137559;28;20027;-68
2022/04/03 07:23:56;;;;;;;8.93;4.97;;;3.30;71.30;;;;;;5136475;28;20015;-66
2022/04/03 07:26:22;;;;;;;9.20;4.57;;;3.30;71.20;;;;;;5137067;28;20048;-66
2022/04/03 07:28:48;;;;;;;7.80;4.47;;;3.40;71.10;;;;;;5136871;28;20111;-66
2022/04/03 07:31:14;;;;;;;8.23;4.38;;;3.40;70.70;;;;;;5136677;28;20034;-67
2022/04/03 07:33:39;;;;;;;8.80;5.15;;;3.50;71.20;;;;;;5136616;28;20099;-66
2022/04/03 07:36:05;;;;;;;8.88;4.85;;;3.50;70.80;;;;;;5136716;28;20460;-67
2022/04/03 07:38:31;;;;;;;8.85;5.10;;;3.60;71.30;;;;;;5136698;28;20042;-67
2022/04/03 07:40:57;;;;;;;12.57;5.90;;;3.60;71.70;;;;;;5136665;28;20049;-66
2022/04/03 07:43:23;;;;;;;7.68;4.50;;;3.70;71.60;;;;;;5136574;28;20089;-67
2022/04/03 07:45:49;;;;;;;7.90;5.15;;;3.80;71.70;;;;;;5136682;28;20016;-66
2022/04/03 07:48:16;;;;;;;7.60;4.95;;;3.90;71.80;;;;;;5136568;28;20398;-67
2022/04/03 07:50:42;;;;;;;8.27;5.35;;;4.00;71.60;;;;;;5136752;28;20045;-66
2022/04/03 07:53:08;;;;;;;9.77;5.35;;;4.10;71.80;;;;;;5136788;27;20024;-66
2022/04/03 07:55:34;;;;;;;12.35;5.50;;;4.20;71.10;;;;;;5135643;28;20063;-67
2022/04/03 07:58:00;;;;;;;8.02;5.15;;;4.30;71.70;;;;;;5136534;28;20110;-66
2022/04/03 08:00:26;;;;;;;9.23;5.22;;;4.40;71.60;;;;;;5135621;28;20034;-66
2022/04/03 08:02:52;;;;;;;12.60;5.32;;;4.40;71.10;;;;;;5136507;28;20023;-66
2022/04/03 08:05:17;;;;;;;6.53;4.32;;;4.50;71.50;;;;;;5136690;28;20020;-66
2022/04/03 08:07:44;;;;;;;8.18;4.65;;;4.60;71.40;;;;;;5136452;28;20034;-66
2022/04/03 08:10:13;;;;;;;12.95;7.28;;;4.70;72.00;;;;;;5136469;28;20488;-66
2022/04/03 08:12:43;;;;;;;7.90;4.22;;;4.80;70.50;;;;;;5136329;28;20035;-66
2022/04/03 08:15:10;;;;;;;7.13;3.78;;;4.90;70.90;;;;;;5136220;28;20035;-66
2022/04/03 08:17:38;;;;;;;7.75;3.90;;;5.00;69.90;;;;;;5136426;28;20031;-66
2022/04/03 08:20:05;;;;;;;9.20;3.50;;;5.10;68.20;;;;;;5136439;28;20049;-66
2022/04/03 08:22:31;;;;;;;5.78;3.25;;;5.20;68.50;;;;;;5136261;28;20028;-66
2022/04/03 08:24:57;;;;;;;5.15;2.67;;;5.30;68.60;;;;;;5135357;28;20084;-66
2022/04/03 08:27:23;;;;;;;6.20;3.58;;;5.40;67.70;;;;;;5136280;28;20034;-66
2022/04/03 08:29:49;;;;;;;5.20;3.03;;;5.60;66.80;;;;;;5136193;28;20016;-66
2022/04/03 08:32:15;;;;;;;5.82;2.00;;;5.70;66.20;;;;;;5136033;28;20036;-66
2022/04/03 08:34:41;;;;;;;6.03;3.50;;;5.80;65.30;;;;;;5136112;28;20031;-66
2022/04/03 08:37:07;;;;;;;4.40;2.42;;;5.80;65.80;;;;;;5136041;28;20028;-66
2022/04/03 08:39:33;;;;;;;6.28;2.38;;;5.90;65.30;;;;;;5135207;28;20039;-66
2022/04/03 08:41:59;;;;;;;4.22;2.20;;;6.10;65.10;;;;;;5135931;28;20023;-67
2022/04/03 08:44:25;;;;;;;4.47;2.90;;;6.20;64.90;;;;;;5135995;27;20020;-66
2022/04/03 08:46:52;;;;;;;4.63;2.40;;;6.40;64.30;;;;;;5135912;28;20015;-66
2022/04/03 08:49:19;;;;;;;3.42;2.05;;;6.50;63.90;;;;;;5134873;28;20059;-66
2022/04/03 08:51:46;;;;;;;4.20;2.20;;;6.60;63.10;;;;;;5135849;28;20020;-66
2022/04/03 08:54:16;;;;;;;4.95;1.48;;;6.70;63.40;;;;;;5135761;28;20479;-66
2022/04/03 08:56:45;;;;;;;2.65;1.70;;;6.80;61.10;;;;;;5135864;28;20016;-66
2022/04/03 08:59:10;;;;;;;4.28;2.10;;;6.90;61.60;;;;;;5135783;28;20043;-66
2022/04/03 09:01:36;;;;;;;3.72;1.90;;;7.10;61.40;;;;;;5135609;28;20023;-66
2022/04/03 09:04:02;;;;;;;6.28;1.85;;;7.20;60.80;;;;;;5134623;28;20055;-66
2022/04/03 09:06:28;;;;;;;3.45;1.50;;;7.30;61.40;;;;;;5134577;28;20032;-66
2022/04/03 09:08:53;;;;;;;3.17;1.83;;;7.50;60.20;;;;;;5135504;28;20024;-66
2022/04/03 09:11:19;;;;;;;7.07;2.08;;;7.60;60.50;;;;;;5135383;28;20036;-66
2022/04/03 09:13:45;;;;;;;4.18;2.40;;;7.70;60.60;;;;;;5135404;28;20050;-66
2022/04/03 09:16:11;;;;;;;5.40;1.75;;;7.90;60.20;;;;;;5135314;28;20051;-66
2022/04/03 09:18:51;;;;;;;4.25;1.90;;;8.00;58.70;;;;;;5135304;28;20043;-66
2022/04/03 09:21:27;;;;;;;4.43;1.88;;;7.90;56.90;;;;;;5135261;28;20079;-66
2022/04/03 09:24:07;;;;;;;3.25;1.48;;;7.90;59.10;;;;;;5135047;28;20034;-66
2022/04/03 09:26:34;;;;;;;1.85;1.30;;;8.00;58.80;;;;;;5134503;28;20035;-69
2022/04/03 09:29:17;;;;;;;3.97;1.50;;;7.90;56.30;;;;;;5135063;28;20072;-67
2022/04/03 09:31:46;;;;;;;3.75;1.90;;;7.90;57.30;;;;;;5135084;28;20024;-67
2022/04/03 09:34:19;;;;;;;4.72;2.20;;;8.00;57.40;;;;;;5133954;28;20106;-69
2022/04/03 09:36:59;;;;;;;3.80;1.80;;;7.90;57.60;;;;;;5134966;28;20030;-67
2022/04/03 09:39:27;;;;;;;4.43;2.20;;;7.90;56.70;;;;;;5134881;28;20049;-66
2022/04/03 09:42:09;;;;;;;5.30;2.17;;;7.80;57.00;;;;;;5134804;28;20073;-66
2022/04/03 09:44:39;;;;;;;4.67;2.37;;;7.80;57.60;;;;;;5133746;28;20039;-67
2022/04/03 09:47:14;;;;;;;2.88;2.03;;;7.80;57.80;;;;;;5133544;28;20031;-66
2022/04/03 09:49:42;;;;;;;6.32;2.28;;;7.90;57.70;;;;;;5134610;28;20027;-66
2022/04/03 09:52:09;;;;;;;3.13;2.25;;;8.00;58.50;;;;;;5134572;28;20045;-66
2022/04/03 09:54:39;;;;;;;4.20;2.00;;;8.20;58.30;;;;;;5134575;28;20027;-66
2022/04/03 09:57:19;;;;;;;4.55;1.67;;;8.40;58.50;;;;;;5134565;28;20023;-66
2022/04/03 09:59:53;;;;;;;2.80;1.50;;;8.70;57.20;;;;;;5134503;28;20110;-66
2022/04/03 10:02:20;;;;;;;4.25;1.60;;;8.70;53.20;;;;;;5134522;28;20084;-66
2022/04/03 10:04:46;;;;;;;3.33;1.70;;;8.60;54.70;;;;;;5134442;28;20027;-66
2022/04/03 10:07:15;;;;;;;3.92;1.50;;;8.60;55.80;;;;;;5134403;28;20024;-66
2022/04/03 10:09:48;;;;;;;1.60;1.23;;;8.70;55.30;;;;;;5134289;28;20034;-66
2022/04/03 10:12:32;;;;;;;2.58;1.35;;;8.60;55.40;;;;;;5134276;28;20031;-66
2022/04/03 10:14:58;;;;;;;4.22;1.13;;;8.60;55.10;;;;;;5134261;28;20024;-66
2022/04/03 10:17:24;;;;;;;1.63;1.20;;;8.60;55.00;;;;;;5134189;28;20069;-66
2022/04/03 10:19:51;;;;;;;3.38;1.23;;;8.50;53.60;;;;;;5134184;28;20472;-66
2022/04/03 10:22:26;;;;;;;1.60;1.10;;;8.40;54.30;;;;;;5134106;28;20020;-66
2022/04/03 10:24:56;;;;;;;2.55;1.30;;;8.40;54.10;;;;;;5134174;28;20075;-66
2022/04/03 10:27:35;;;;;;;2.90;1.23;;;8.40;55.50;;;;;;5134104;28;20027;-66
2022/04/03 10:30:01;;;;;;;0.70;0.70;;;8.60;56.10;;;;;;5134084;28;20028;-66
2022/04/03 10:32:33;;;;;;;2.28;0.95;;;8.70;54.40;;;;;;5133884;28;20048;-66
2022/04/03 10:35:03;;;;;;;3.40;1.10;;;8.80;54.50;;;;;;5134018;28;20019;-66
2022/04/03 10:37:34;;;;;;;2.22;1.05;;;8.90;53.90;;;;;;5134090;28;20083;-66
2022/04/03 10:40:09;;;;;;;2.00;1.13;;;8.90;53.80;;;;;;5133855;28;20027;-66
2022/04/03 10:42:55;;;;;;;1.55;1.10;;;8.90;53.00;;;;;;5133777;28;20024;-67
2022/04/03 10:45:25;;;;;;;3.35;1.20;;;9.00;53.40;;;;;;5133876;28;20031;-66
2022/04/03 10:47:52;;;;;;;1.73;1.17;;;9.00;53.70;;;;;;5133817;28;20043;-66
2022/04/03 10:50:18;;;;;;;1.98;1.05;;;9.10;52.90;;;;;;5133750;28;20024;-66
2022/04/03 10:52:44;;;;;;;2.22;1.00;;;9.20;52.90;;;;;;5133778;28;20364;-66
2022/04/03 10:55:23;;;;;;;2.00;1.38;;;9.30;53.30;;;;;;5133739;28;20028;-66
2022/04/03 10:57:58;;;;;;;2.80;1.40;;;9.40;51.50;;;;;;5133716;28;20039;-66
2022/04/03 11:00:24;;;;;;;2.80;1.23;;;9.50;51.90;;;;;;5133783;28;20042;-66
2022/04/03 11:02:51;;;;;;;2.90;1.50;;;9.50;51.60;;;;;;5133573;28;20027;-66
2022/04/03 11:05:23;;;;;;;3.50;1.40;;;9.50;51.40;;;;;;5133653;28;20020;-67
2022/04/03 11:07:52;;;;;;;2.03;1.30;;;9.40;50.80;;;;;;5133697;28;20027;-66
2022/04/03 11:10:55;;;;;;;2.95;1.63;;;9.20;50.60;;;;;;5133558;28;20028;-67
2022/04/03 11:13:30;;;;;;;2.05;1.42;;;9.10;50.30;;;;;;5133541;28;20091;-66
2022/04/03 11:15:57;;;;;;;1.40;1.20;;;8.90;50.90;;;;;;5133731;28;20027;-66
2022/04/03 11:18:35;;;;;;;5.30;1.70;;;8.80;51.40;;;;;;5133546;28;20030;-67
2022/04/03 11:21:17;;;;;;;2.28;1.48;;;8.70;52.40;;;;;;5133548;28;20087;-66
2022/04/03 11:23:46;;;;;;;1.45;1.00;;;8.70;52.10;;;;;;5133495;28;20061;-66
2022/04/03 11:26:12;;;;;;;2.67;0.88;;;8.50;51.40;;;;;;5133402;28;20023;-66
2022/04/03 11:28:39;;;;;;;1.52;1.17;;;8.50;51.20;;;;;;5133328;28;20019;-66
2022/04/03 11:31:05;;;;;;;3.25;1.40;;;8.50;52.70;;;;;;5133404;28;20023;-66
2022/04/03 11:33:32;;;;;;;1.73;1.08;;;8.50;52.40;;;;;;5133223;28;20062;-66
2022/04/03 11:36:06;;;;;;;2.15;1.40;;;8.50;52.50;;;;;;5133371;28;20034;-67
2022/04/03 11:38:46;;;;;;;2.45;1.23;;;8.50;52.20;;;;;;5133389;28;20028;-67
2022/04/03 11:41:17;;;;;;;2.03;1.10;;;8.50;52.30;;;;;;5133353;28;20396;-66
2022/04/03 11:44:00;;;;;;;3.80;1.65;;;8.50;53.40;;;;;;5133297;28;20047;-66
2022/04/03 11:46:26;;;;;;;;;;;8.40;52.70;;;;;;5133836;28;20024;-66
2022/04/03 11:48:52;;;;;;;1.85;1.67;;;8.50;53.10;;;;;;5133261;28;19942;-66
2022/04/03 11:51:20;;;;;;;3.92;1.92;;;8.40;53.10;;;;;;5136476;28;20024;-66
2022/04/03 11:53:49;;;;;;;3.50;2.05;;;8.40;53.40;;;;;;5136964;28;20072;-66
2022/04/03 11:56:19;;;;;;;3.33;1.98;;;8.40;53.60;;;;;;5136896;27;20024;-66
2022/04/03 11:58:53;;;;;;;3.20;2.30;;;8.50;54.10;;;;;;5136889;28;20081;-66
2022/04/03 12:01:28;;;;;;;3.95;2.20;;;8.50;54.40;;;;;;5136920;28;20027;-66
2022/04/03 12:04:13;;;;;;;2.63;1.98;;;8.50;53.90;;;;;;5136753;28;20042;-66
2022/04/03 12:06:43;;;;;;;2.60;2.20;;;8.60;53.60;;;;;;5136852;28;20023;-66
2022/04/03 12:09:11;;;;;;;2.92;2.00;;;8.60;53.70;;;;;;5136710;28;20022;-66
2022/04/03 12:11:38;;;;;;;4.25;2.08;;;8.50;53.00;;;;;;5136639;28;20051;-67
2022/04/03 12:14:06;;;;;;;3.13;1.75;;;8.60;53.90;;;;;;5136611;28;20057;-66
2022/04/03 12:16:39;;;;;;;4.45;1.65;;;8.60;54.00;;;;;;5136488;28;20030;-66
2022/04/03 12:19:09;;;;;;;3.22;1.50;;;8.60;54.80;;;;;;5136486;28;20100;-66
2022/04/03 12:21:46;;;;;;;2.80;1.33;;;8.60;55.20;;;;;;5136583;28;20084;-66
2022/04/03 12:24:28;;;;;;;2.50;1.60;;;8.60;55.80;;;;;;5136389;28;20035;-66
2022/04/03 12:27:22;;;;;;;3.75;1.77;;;8.60;55.60;;;;;;5135220;28;20032;-66
2022/04/03 12:29:49;;;;;;;3.15;1.75;;;8.60;55.10;;;;;;5136216;28;20020;-66
2022/04/03 12:32:16;;;;;;;2.88;1.50;;;8.80;55.70;;;;;;5136115;28;20053;-66
2022/04/03 12:34:48;;;;;;;2.60;1.30;;;8.90;55.80;;;;;;5136140;28;20051;-66
2022/04/03 12:37:16;;;;;;;3.53;1.30;;;9.00;54.80;;;;;;5136333;28;20028;-66
2022/04/03 12:39:51;;;;;;;1.30;1.17;;;9.10;54.60;;;;;;5136038;28;20041;-67
2022/04/03 12:42:24;;;;;;;3.75;1.40;;;9.20;54.20;;;;;;5135913;28;20038;-66
2022/04/03 12:44:57;;;;;;;4.13;1.65;;;9.20;52.60;;;;;;5135973;28;20019;-66
2022/04/03 12:47:41;;;;;;;2.30;1.48;;;9.20;53.00;;;;;;5136065;28;20032;-66
2022/04/03 12:50:06;;;;;;;2.10;1.60;;;9.30;53.20;;;;;;5136021;28;20067;-66
2022/04/03 12:52:38;;;;;;;2.20;1.63;;;9.30;53.10;;;;;;5135811;28;20035;-66
2022/04/03 12:55:07;;;;;;;2.22;1.50;;;9.40;53.40;;;;;;5135794;28;20028;-66
2022/04/03 13:00:19;;;;;;;2.67;1.90;;;9.50;53.20;;;;;;5135916;28;20047;-66
2022/04/03 13:02:47;;;;;;;2.35;1.70;;;9.50;54.20;;;;;;5134467;28;20027;-66
2022/04/03 13:05:14;;;;;;;2.47;1.55;;;9.50;53.80;;;;;;5135587;28;20024;-66